Time;durP1;ratioP1;P1;durP2;ratioP2;P2;SDS_P1;SDS_P2;PMS_P1;PMS_P2;Temp;Humidity;BMP_temperature;BMP_pressure;BME280_temperature;BME280_humidity;BME280_pressure;Samples;Min_cycle;Max_cycle;Signal;HPM_P1;HPM_P2
2023/04/22 00:04:01;;;;;;;4.43;1.60;;;;;;;10.71;100.00;97963.19;15279030;19;20387;-48
2023/04/22 00:09:25;;;;;;;4.97;1.90;;;;;;;10.66;100.00;97952.09;15283635;19;20017;-50
2023/04/22 00:14:53;;;;;;;4.25;1.77;;;;;;;10.61;100.00;97951.78;15281602;19;20025;-52
2023/04/22 00:20:20;;;;;;;4.00;1.42;;;;;;;10.57;100.00;97942.34;15279093;19;20033;-54
2023/04/22 00:25:45;;;;;;;6.07;1.50;;;;;;;10.52;100.00;97939.34;15283137;19;20584;-49
2023/04/22 00:31:12;;;;;;;6.63;1.90;;;;;;;10.46;100.00;97935.50;15281708;19;20074;-51
2023/04/22 00:36:37;;;;;;;4.10;1.80;;;;;;;10.39;100.00;97926.41;15281912;19;20377;-50
2023/04/22 00:42:03;;;;;;;5.28;1.58;;;;;;;10.32;100.00;97929.78;15278635;19;20014;-50
2023/04/22 00:47:32;;;;;;;4.93;1.80;;;;;;;10.22;100.00;97930.97;15281725;19;20006;-50
2023/04/22 00:52:56;;;;;;;6.40;1.80;;;;;;;10.20;100.00;97930.28;15275114;19;20015;-51
2023/04/22 00:58:23;;;;;;;6.70;1.70;;;;;;;10.18;100.00;97928.59;15280103;19;20014;-52
2023/04/22 01:03:51;;;;;;;5.55;1.70;;;;;;;10.21;100.00;97919.38;15277815;19;20010;-50
2023/04/22 01:09:16;;;;;;;4.03;1.70;;;;;;;10.20;100.00;97920.38;15279141;19;20011;-48
2023/04/22 01:14:41;;;;;;;3.92;1.70;;;;;;;10.22;100.00;97926.44;15270432;19;20438;-52
2023/04/22 01:20:03;;;;;;;4.47;1.52;;;;;;;10.25;100.00;97930.63;15280623;19;20466;-50
2023/04/22 01:25:31;;;;;;;4.15;1.60;;;;;;;10.24;100.00;97926.25;15276970;19;20456;-51
2023/04/22 01:30:56;;;;;;;4.97;1.35;;;;;;;10.23;100.00;97924.56;15279532;19;20024;-50
2023/04/22 01:36:21;;;;;;;4.93;1.75;;;;;;;10.22;100.00;97928.28;15280883;19;20015;-54
2023/04/22 01:41:50;;;;;;;4.97;1.67;;;;;;;10.20;100.00;97924.91;15271854;19;20014;-52
2023/04/22 01:47:15;;;;;;;3.90;1.50;;;;;;;10.09;100.00;97918.88;15277333;19;20007;-54
2023/04/22 01:52:40;;;;;;;2.85;1.60;;;;;;;10.05;100.00;97922.94;15275486;19;20042;-51
2023/04/22 01:58:08;;;;;;;2.92;1.58;;;;;;;9.97;100.00;97925.59;15274806;19;20045;-54
2023/04/22 02:03:33;;;;;;;5.15;1.63;;;;;;;9.80;100.00;97925.63;15273006;19;20471;-48
2023/04/22 02:08:58;;;;;;;3.60;1.60;;;;;;;9.75;100.00;97922.59;15277562;19;20018;-53
2023/04/22 02:14:25;;;;;;;3.72;1.60;;;;;;;9.74;100.00;97920.09;15271967;19;20006;-53
2023/04/22 02:19:50;;;;;;;4.10;1.80;;;;;;;9.75;100.00;97919.91;15284661;19;20014;-51
2023/04/22 02:25:16;;;;;;;5.65;1.35;;;;;;;9.74;100.00;97918.22;15291093;19;20093;-51
2023/04/22 02:30:44;;;;;;;3.63;1.60;;;;;;;9.76;100.00;97910.00;15285811;19;20014;-55
2023/04/22 02:36:08;;;;;;;4.95;1.40;;;;;;;9.77;100.00;97917.91;15290201;19;20038;-51
2023/04/22 02:41:33;;;;;;;7.07;1.50;;;;;;;9.76;100.00;97915.38;15286226;19;20021;-54
2023/04/22 02:47:02;;;;;;;5.43;1.60;;;;;;;9.75;100.00;97911.00;15291612;19;20094;-59
2023/04/22 02:52:27;;;;;;;5.70;1.38;;;;;;;9.73;100.00;97916.53;15285816;19;20035;-52
2023/04/22 02:57:51;;;;;;;6.00;1.70;;;;;;;9.73;100.00;97908.47;15290658;19;20032;-50
2023/04/22 03:03:19;;;;;;;3.65;1.50;;;;;;;9.72;100.00;97904.09;15279587;19;20014;-52
2023/04/22 03:08:43;;;;;;;5.00;1.50;;;;;;;9.71;100.00;97902.41;15289323;19;20011;-51
2023/04/22 03:14:08;;;;;;;6.07;1.40;;;;;;;9.71;100.00;97899.72;15284069;19;20802;-52
2023/04/22 03:19:35;;;;;;;5.78;1.50;;;;;;;9.66;100.00;97894.84;15284372;19;20007;-51
2023/04/22 03:25:00;;;;;;;2.35;1.40;;;;;;;9.64;100.00;97904.94;15286186;19;20014;-53
2023/04/22 03:30:30;;;;;;;5.35;1.50;;;;;;;9.58;100.00;97902.94;15282222;19;20023;-51
2023/04/22 03:35:58;;;;;;;2.28;1.33;;;;;;;9.54;100.00;97909.66;15276264;19;20105;-50
2023/04/22 03:41:25;;;;;;;5.10;1.52;;;;;;;9.52;100.00;97911.69;15284012;19;20018;-53
2023/04/22 03:46:50;;;;;;;3.50;1.38;;;;;;;9.46;100.00;97906.97;15285809;19;20014;-53
2023/04/22 03:52:30;;;;;;;7.72;1.60;;;;;;;9.44;100.00;97906.28;15282348;19;20019;-49
2023/04/22 03:57:56;;;;;;;3.63;1.60;;;;;;;9.45;100.00;97903.44;15284442;19;20014;-52
2023/04/22 04:03:21;;;;;;;3.75;1.40;;;;;;;9.46;100.00;97901.59;15279634;19;20395;-52
2023/04/22 04:08:52;;;;;;;2.58;1.38;;;;;;;9.49;100.00;97902.09;15282922;19;20471;-54
2023/04/22 04:14:17;;;;;;;5.53;1.40;;;;;;;9.52;100.00;97909.00;15277265;19;20015;-49
2023/04/22 04:19:42;;;;;;;2.90;1.45;;;;;;;9.54;100.00;97915.03;15281921;19;20093;-55
2023/04/22 04:25:10;;;;;;;4.85;1.27;;;;;;;9.56;100.00;97913.88;15282992;19;20018;-55
2023/04/22 04:30:36;;;;;;;4.63;1.35;;;;;;;9.58;100.00;97907.47;15279542;19;20014;-53
2023/04/22 04:36:01;;;;;;;4.78;1.45;;;;;;;9.62;100.00;97912.34;15273083;19;20413;-52
2023/04/22 04:41:30;;;;;;;3.55;1.40;;;;;;;9.68;100.00;97906.28;15278802;19;20013;-53
2023/04/22 04:46:56;;;;;;;6.82;1.40;;;;;;;9.76;100.00;97916.22;15281757;19;20017;-56
2023/04/22 04:52:27;;;;;;;2.53;1.30;;;;;;;9.86;100.00;97916.06;15267763;19;20039;-48
2023/04/22 04:57:55;;;;;;;4.17;1.40;;;;;;;9.91;100.00;97915.53;15273642;19;20044;-47
2023/04/22 05:03:20;;;;;;;6.88;1.73;;;;;;;9.96;100.00;97916.72;15274389;19;20100;-50
2023/04/22 05:08:45;;;;;;;4.38;1.50;;;;;;;10.02;100.00;97926.78;15274250;19;20857;-51
2023/04/22 05:14:13;;;;;;;3.22;1.30;;;;;;;10.07;100.00;97923.56;15275471;19;20015;-50
2023/04/22 05:19:38;;;;;;;3.35;1.38;;;;;;;10.16;100.00;97919.03;15277990;19;20371;-50
2023/04/22 05:25:03;;;;;;;3.17;1.30;;;;;;;10.25;100.00;97923.38;15269924;19;20028;-47
2023/04/22 05:30:40;;;;;;;3.10;1.45;;;;;;;10.29;100.00;97924.72;15273784;19;20018;-47
2023/04/22 05:36:05;;;;;;;4.15;1.50;;;;;;;10.32;100.00;97924.38;15268521;19;20023;-48
2023/04/22 05:41:31;;;;;;;5.55;1.60;;;;;;;10.38;100.00;97935.50;15267045;19;20018;-50
2023/04/22 05:46:58;;;;;;;3.00;1.40;;;;;;;10.46;100.00;97938.19;15275154;19;20020;-49
2023/04/22 05:52:23;;;;;;;4.55;1.60;;;;;;;10.62;100.00;97945.38;15269592;19;20025;-49
2023/04/22 05:57:55;;;;;;;6.00;1.50;;;;;;;10.74;100.00;97935.91;15289353;19;20052;-48
2023/04/22 06:03:33;;;;;;;6.72;1.50;;;;;;;10.88;100.00;97933.47;15285692;19;20029;-49
2023/04/22 06:08:57;;;;;;;4.43;1.48;;;;;;;10.99;100.00;97925.03;15293407;19;20042;-48
2023/04/22 06:14:24;;;;;;;3.90;1.30;;;;;;;11.05;100.00;97929.69;15277960;19;20044;-48
2023/04/22 06:19:52;;;;;;;4.82;1.45;;;;;;;11.20;100.00;97937.03;15288261;19;20478;-48
2023/04/22 06:25:16;;;;;;;4.35;1.50;;;;;;;11.34;100.00;97928.19;15287596;19;20017;-48
2023/04/22 06:30:41;;;;;;;3.85;1.45;;;;;;;11.46;100.00;97931.31;15288679;19;20487;-49
2023/04/22 06:36:09;;;;;;;4.55;1.70;;;;;;;11.62;100.00;97927.63;15280004;19;20071;-49
2023/04/22 06:41:43;;;;;;;5.30;1.50;;;;;;;11.77;100.00;97932.25;15278685;19;20593;-47
2023/04/22 06:47:26;;;;;;;2.92;1.30;;;;;;;11.95;100.00;97930.06;15285340;19;20015;-47
2023/04/22 06:53:02;;;;;;;4.47;1.27;;;;;;;12.18;100.00;97929.22;15281849;19;20463;-49
2023/04/22 06:58:27;;;;;;;3.20;1.38;;;;;;;12.43;100.00;97924.41;15271662;19;20053;-48
2023/04/22 07:03:52;;;;;;;3.30;1.30;;;;;;;12.57;100.00;97922.72;15284409;19;20355;-51
2023/04/22 07:09:21;;;;;;;4.75;1.50;;;;;;;12.87;100.00;97914.63;15293632;19;20703;-47
2023/04/22 07:14:46;;;;;;;4.80;1.45;;;;;;;13.12;100.00;97916.16;15282660;19;20009;-47
2023/04/22 07:20:12;;;;;;;3.22;1.50;;;;;;;13.42;100.00;97927.75;15287893;19;20587;-47
2023/04/22 07:25:40;;;;;;;3.40;1.33;;;;;;;13.69;100.00;97912.63;15291737;19;20031;-48
2023/04/22 07:31:04;;;;;;;4.82;1.33;;;;;;;13.92;100.00;97905.31;15291383;19;20014;-49
2023/04/22 07:36:30;;;;;;;3.50;1.30;;;;;;;14.17;100.00;97909.25;15288139;19;20072;-51
2023/04/22 07:42:06;;;;;;;3.83;1.25;;;;;;;14.36;100.00;97904.19;15287696;19;20006;-50
2023/04/22 07:47:31;;;;;;;3.90;1.27;;;;;;;14.59;100.00;97884.09;15290829;19;20026;-49
2023/04/22 07:52:55;;;;;;;3.55;1.40;;;;;;;14.82;100.00;97893.81;15278335;19;20149;-52
2023/04/22 07:58:23;;;;;;;3.65;1.63;;;;;;;15.08;100.00;97880.38;15284378;19;20011;-48
2023/04/22 08:03:48;;;;;;;5.30;1.20;;;;;;;15.33;100.00;97879.81;15278874;19;20021;-48
2023/04/22 08:09:12;;;;;;;3.15;1.27;;;;;;;15.59;100.00;97877.34;15282148;19;20054;-49
2023/04/22 08:14:40;;;;;;;5.32;1.20;;;;;;;15.82;100.00;97882.34;15275870;19;20024;-47
2023/04/22 08:20:05;;;;;;;3.03;1.23;;;;;;;16.04;100.00;97876.78;15280653;19;20074;-49
2023/04/22 08:25:30;;;;;;;2.20;1.13;;;;;;;16.18;100.00;97883.84;15276543;19;20021;-47
2023/04/22 08:30:58;;;;;;;4.90;1.30;;;;;;;16.35;90.06;97872.53;15282296;19;20010;-48
2023/04/22 08:36:24;;;;;;;5.65;1.00;;;;;;;16.60;89.96;97868.09;15277976;19;20021;-48
2023/04/22 08:41:51;;;;;;;3.50;1.17;;;;;;;16.77;84.94;97871.16;15277915;19;20011;-49
2023/04/22 08:47:21;;;;;;;4.50;1.05;;;;;;;17.08;87.10;97871.50;15281191;19;20014;-46
2023/04/22 08:52:45;;;;;;;2.17;1.20;;;;;;;17.39;74.02;97872.56;15276299;19;20019;-46
2023/04/22 08:58:12;;;;;;;4.18;0.98;;;;;;;17.59;77.63;97867.00;15276466;19;20478;-47
2023/04/22 09:03:41;;;;;;;2.25;0.90;;;;;;;17.61;70.69;97872.22;15275342;19;20020;-46
2023/04/22 09:09:07;;;;;;;1.98;1.00;;;;;;;17.74;68.84;97863.94;15277999;19;20418;-48
2023/04/22 09:14:35;;;;;;;2.17;0.90;;;;;;;17.90;67.23;97857.09;15277558;19;20022;-49
2023/04/22 09:20:09;;;;;;;2.40;1.00;;;;;;;18.15;63.25;97859.88;15279851;19;20022;-49
2023/04/22 09:25:35;;;;;;;2.50;0.90;;;;;;;18.28;62.69;97853.44;15278274;19;20332;-48
2023/04/22 09:31:00;;;;;;;3.17;1.00;;;;;;;18.42;70.99;97854.13;15283875;19;20019;-48
2023/04/22 09:36:28;;;;;;;2.13;0.90;;;;;;;18.60;72.39;97849.75;15289057;19;20025;-51
2023/04/22 09:41:46;;;;;;;1.23;0.85;;;;;;;18.83;72.60;97842.75;15288921;19;20021;-50
2023/04/22 09:47:11;;;;;;;1.52;0.90;;;;;;;18.99;74.75;97838.59;15291101;19;20021;-48
2023/04/22 09:52:45;;;;;;;3.42;1.00;;;;;;;19.13;68.00;97842.81;15288660;19;20022;-50
2023/04/22 09:58:11;;;;;;;4.68;1.00;;;;;;;19.25;69.45;97837.38;15296801;19;20376;-51
2023/04/22 10:03:36;;;;;;;3.00;1.00;;;;;;;19.53;67.20;97825.84;15290106;19;20018;-50
2023/04/22 10:09:06;;;;;;;5.05;0.90;;;;;;;19.68;60.22;97825.41;15295020;19;20012;-48
2023/04/22 10:14:31;;;;;;;1.15;0.68;;;;;;;19.92;59.33;97822.75;15284179;19;20351;-47
2023/04/22 10:19:56;;;;;;;1.33;0.88;;;;;;;19.97;58.20;97814.63;15290828;19;20032;-50
2023/04/22 10:25:30;;;;;;;1.92;0.70;;;;;;;20.13;57.06;97806.81;15288409;19;20017;-47
2023/04/22 10:30:55;;;;;;;4.38;0.75;;;;;;;20.31;52.42;97800.38;15284614;19;20015;-49
2023/04/22 10:36:26;;;;;;;1.27;0.63;;;;;;;20.44;55.26;97793.78;15286106;19;20010;-47
2023/04/22 10:42:05;;;;;;;1.73;0.60;;;;;;;20.64;54.03;97788.72;15289715;19;20015;-54
2023/04/22 10:47:39;;;;;;;2.70;0.82;;;;;;;20.86;53.04;97792.75;15294136;19;20025;-52
2023/04/22 10:53:36;;;;;;;1.58;0.70;;;;;;;20.93;51.61;97780.59;15291649;19;20113;-79
2023/04/22 10:59:04;;;;;;;1.25;0.70;;;;;;;21.08;54.25;97773.75;15302252;19;20039;-79
2023/04/22 11:04:28;;;;;;;2.33;0.70;;;;;;;21.21;53.72;97773.44;15298847;19;20066;-80
2023/04/22 11:09:55;;;;;;;1.70;0.70;;;;;;;21.33;58.06;97769.81;15298003;19;20015;-80
2023/04/22 11:15:23;;;;;;;1.55;0.90;;;;;;;21.43;49.32;97769.97;15297612;19;20027;-80
2023/04/22 11:20:50;;;;;;;0.93;0.70;;;;;;;21.51;51.67;97766.81;15294988;19;20637;-80
2023/04/22 11:26:15;;;;;;;5.18;0.60;;;;;;;21.66;53.60;97768.19;15297083;19;20018;-79
2023/04/22 11:31:43;;;;;;;2.28;0.82;;;;;;;21.76;52.53;97762.84;15294484;19;20074;-80
2023/04/22 11:37:07;;;;;;;1.77;0.60;;;;;;;21.90;51.90;97757.03;15292448;19;20014;-80
2023/04/22 11:42:32;;;;;;;1.30;0.60;;;;;;;21.93;51.14;97756.53;15292012;19;20010;-79
2023/04/22 11:48:01;;;;;;;1.95;0.70;;;;;;;22.01;52.12;97753.34;15298230;19;20018;-79
2023/04/22 11:53:33;;;;;;;1.73;0.60;;;;;;;22.12;50.53;97748.84;15290600;19;20082;-79
2023/04/22 11:58:57;;;;;;;5.18;0.70;;;;;;;22.13;50.74;97751.34;15297164;19;20011;-80
2023/04/22 12:04:25;;;;;;;2.58;0.98;;;;;;;22.23;50.56;97752.56;15296624;19;20015;-80
2023/04/22 12:09:49;;;;;;;2.03;0.80;;;;;;;22.28;48.27;97747.97;15294139;19;20018;-80
2023/04/22 12:15:22;;;;;;;1.30;0.63;;;;;;;22.37;47.67;97744.78;15301914;19;20010;-80
2023/04/22 12:20:49;;;;;;;3.67;0.70;;;;;;;22.27;47.91;97746.31;15291752;19;20516;-80
2023/04/22 12:26:14;;;;;;;1.98;0.70;;;;;;;22.40;52.46;97736.03;15294681;19;20029;-79
2023/04/22 12:31:43;;;;;;;1.05;0.60;;;;;;;22.63;51.01;97721.25;15293332;19;20003;-80
2023/04/22 12:37:11;;;;;;;1.13;0.68;;;;;;;22.83;48.56;97717.06;15300291;19;20346;-80
2023/04/22 12:42:35;;;;;;;2.15;0.60;;;;;;;23.14;52.16;97709.97;15293938;19;20417;-82
2023/04/22 12:48:00;;;;;;;0.70;0.52;;;;;;;23.41;51.66;97705.53;15297644;19;20011;-79
2023/04/22 12:53:36;;;;;;;1.65;0.80;;;;;;;23.51;44.38;97708.38;15284892;19;20021;-79
2023/04/22 12:59:02;;;;;;;1.55;0.70;;;;;;;23.49;45.57;97702.28;15285386;19;20007;-82
2023/04/22 13:04:27;;;;;;;1.77;0.75;;;;;;;23.78;50.18;97690.97;15287318;19;20070;-82
2023/04/22 13:09:55;;;;;;;2.17;0.68;;;;;;;24.09;45.89;97683.75;15289320;19;20018;-81
2023/04/22 13:15:20;;;;;;;1.38;0.60;;;;;;;24.28;49.29;97670.34;15281288;19;20071;-81
2023/04/22 13:20:45;;;;;;;1.48;0.60;;;;;;;24.26;42.83;97669.78;15290060;19;20022;-80
2023/04/22 13:26:12;;;;;;;1.45;0.55;;;;;;;24.37;42.88;97656.84;15289840;19;20019;-79
2023/04/22 13:31:36;;;;;;;0.75;0.60;;;;;;;24.60;40.57;97647.31;15285362;19;20014;-79
2023/04/22 13:37:01;;;;;;;3.47;0.57;;;;;;;24.99;45.69;97647.94;15290306;19;20002;-79
2023/04/22 13:42:29;;;;;;;0.88;0.60;;;;;;;25.28;43.44;97634.44;15288935;19;20013;-80
2023/04/22 13:48:02;;;;;;;2.03;0.60;;;;;;;25.55;43.46;97633.31;15332629;19;20021;-80
2023/04/22 13:53:26;;;;;;;3.58;0.50;;;;;;;25.92;43.47;97628.53;15338643;19;20612;-81
2023/04/22 13:58:54;;;;;;;1.15;0.60;;;;;;;26.23;43.96;97614.63;15276768;19;20011;-77
2023/04/22 14:04:19;;;;;;;1.63;0.52;;;;;;;26.49;40.65;97611.72;15281286;19;20472;-80
2023/04/22 14:09:43;;;;;;;1.48;0.70;;;;;;;26.54;42.75;97608.94;15281921;19;20028;-78
2023/04/22 14:15:12;;;;;;;1.73;0.50;;;;;;;26.36;39.03;97600.19;15283777;19;20556;-78
2023/04/22 14:20:36;;;;;;;1.27;0.60;;;;;;;25.86;41.31;97602.91;15285825;19;20072;-77
2023/04/22 14:26:01;;;;;;;2.75;0.70;;;;;;;25.56;39.21;97592.78;15290333;19;20480;-77
2023/04/22 14:31:29;;;;;;;1.55;0.60;;;;;;;25.50;38.43;97595.53;15286582;19;20011;-76
2023/04/22 14:36:54;;;;;;;1.38;0.50;;;;;;;25.35;37.21;97590.84;15290286;19;20373;-76
2023/04/22 14:42:18;;;;;;;0.85;0.30;;;;;;;25.21;38.46;97582.34;15289899;19;20367;-78
2023/04/22 14:47:46;;;;;;;3.42;0.65;;;;;;;25.21;37.89;97584.25;15297789;19;20010;-79
2023/04/22 14:53:11;;;;;;;0.88;0.43;;;;;;;24.85;39.29;97576.84;15281750;19;20568;-78
2023/04/22 14:58:36;;;;;;;0.63;0.60;;;;;;;24.41;36.99;97574.56;15288230;19;20022;-78
2023/04/22 15:04:03;;;;;;;2.20;0.50;;;;;;;24.28;41.10;97571.25;15288955;19;20007;-78
2023/04/22 15:09:29;;;;;;;0.65;0.50;;;;;;;24.50;40.09;97580.34;15289591;19;20888;-77
2023/04/22 15:14:53;;;;;;;5.40;0.60;;;;;;;24.50;41.38;97564.69;15287138;19;20074;-77
2023/04/22 15:20:20;;;;;;;2.22;0.68;;;;;;;24.51;40.10;97558.06;15288060;19;20074;-78
2023/04/22 15:25:46;;;;;;;0.93;0.60;;;;;;;24.42;41.15;97562.44;15283592;19;20022;-78
2023/04/22 15:31:11;;;;;;;1.23;0.50;;;;;;;24.21;41.31;97556.09;15286544;19;20500;-77
2023/04/22 15:36:38;;;;;;;1.58;0.50;;;;;;;24.18;42.58;97551.94;15296609;19;20018;-77
2023/04/22 15:42:03;;;;;;;0.73;0.50;;;;;;;24.05;42.86;97550.53;15291435;19;20025;-78
2023/04/22 15:47:27;;;;;;;1.20;0.63;;;;;;;24.13;44.77;97549.19;15285424;19;20006;-78
2023/04/22 15:53:01;;;;;;;3.22;0.73;;;;;;;24.11;43.05;97549.44;15281748;19;20023;-78
2023/04/22 15:58:26;;;;;;;2.58;0.70;;;;;;;24.04;45.47;97543.38;15280366;19;20388;-78
2023/04/22 16:03:52;;;;;;;1.73;0.60;;;;;;;24.14;44.63;97545.34;15280265;19;20021;-78
2023/04/22 16:09:19;;;;;;;1.48;0.63;;;;;;;24.28;42.78;97545.63;15285656;19;20022;-77
2023/04/22 16:14:44;;;;;;;2.33;0.68;;;;;;;24.50;44.82;97539.06;15281685;19;20026;-77
2023/04/22 16:20:11;;;;;;;2.47;0.70;;;;;;;24.70;43.46;97530.03;15283756;19;20038;-77
2023/04/22 16:25:38;;;;;;;5.03;0.70;;;;;;;24.73;39.17;97527.53;15281376;19;20537;-77
2023/04/22 16:31:03;;;;;;;2.03;0.50;;;;;;;24.69;39.20;97517.34;15281588;19;20022;-77
2023/04/22 16:36:28;;;;;;;0.60;0.45;;;;;;;24.43;40.57;97514.56;15284831;19;20020;-79
2023/04/22 16:42:01;;;;;;;1.52;0.50;;;;;;;24.36;39.52;97505.75;15278980;19;20040;-78
2023/04/22 16:47:25;;;;;;;0.95;0.50;;;;;;;24.11;40.53;97508.16;15292151;19;20014;-78
2023/04/22 16:52:57;;;;;;;1.35;0.47;;;;;;;24.20;42.48;97505.72;15290858;19;20066;-78
2023/04/22 16:58:24;;;;;;;;;;;;;;;24.08;41.32;97497.72;15281140;19;20017;-80
2023/04/22 17:03:48;;;;;;;2.60;0.70;;;;;;;23.92;43.46;97499.59;15278291;19;19911;-76
2023/04/22 17:09:13;;;;;;;2.13;0.52;;;;;;;23.77;41.91;97508.59;15289449;19;20022;-77
2023/04/22 17:14:40;;;;;;;1.40;0.55;;;;;;;23.71;44.34;97498.69;15294537;19;20059;-79
2023/04/22 17:20:06;;;;;;;2.45;0.60;;;;;;;23.65;44.80;97497.84;15292195;19;20014;-77
2023/04/22 17:25:30;;;;;;;1.52;0.70;;;;;;;23.49;44.96;97490.63;15287657;19;20771;-79
2023/04/22 17:31:05;;;;;;;3.45;0.70;;;;;;;23.32;45.95;97486.19;15285255;19;20014;-80
2023/04/22 17:36:30;;;;;;;6.70;1.20;;;;;;;23.13;47.60;97487.66;15287149;19;20006;-78
2023/04/22 17:41:57;;;;;;;1.13;0.80;;;;;;;22.80;48.12;97489.66;15284852;19;20066;-78
2023/04/22 17:47:24;;;;;;;1.05;0.80;;;;;;;22.47;48.63;97495.19;15287583;19;20477;-78
2023/04/22 17:52:56;;;;;;;1.50;0.80;;;;;;;22.09;48.60;97486.84;15294961;19;20015;-78
2023/04/22 17:58:22;;;;;;;1.90;0.93;;;;;;;21.77;50.38;97476.66;15302185;19;20078;-79
2023/04/22 18:03:49;;;;;;;1.30;0.90;;;;;;;21.40;51.23;97471.81;15291655;19;20014;-77
2023/04/22 18:09:14;;;;;;;3.15;0.82;;;;;;;21.03;52.19;97486.13;15301160;19;20509;-80
2023/04/22 18:14:40;;;;;;;1.38;0.90;;;;;;;20.71;53.44;97495.75;15302712;19;20015;-78
2023/04/22 18:20:12;;;;;;;1.10;0.80;;;;;;;20.45;54.15;97491.78;15305651;19;20454;-78
2023/04/22 18:25:38;;;;;;;1.48;1.30;;;;;;;20.08;55.05;97493.09;15368337;19;20026;-78
2023/04/22 18:31:03;;;;;;;3.08;1.10;;;;;;;19.90;56.35;97496.00;15319410;19;20010;-79
2023/04/22 18:36:30;;;;;;;1.38;0.90;;;;;;;19.64;56.56;97499.06;15288765;19;20029;-77
2023/04/22 18:41:56;;;;;;;1.52;1.00;;;;;;;19.40;57.80;97510.03;15284751;19;20030;-79
2023/04/22 18:47:20;;;;;;;1.70;0.90;;;;;;;19.20;59.00;97510.44;15288979;19;20078;-78
2023/04/22 18:52:47;;;;;;;2.35;1.00;;;;;;;19.05;59.57;97504.66;15288767;19;20588;-77
2023/04/22 18:58:12;;;;;;;1.38;0.90;;;;;;;18.89;61.08;97508.88;15290532;19;20026;-78
2023/04/22 19:03:37;;;;;;;2.85;1.20;;;;;;;18.74;62.10;97518.41;15291795;19;20627;-78
2023/04/22 19:09:05;;;;;;;1.45;1.00;;;;;;;18.60;63.56;97517.78;14782077;19;10000612;-78
2023/04/22 19:14:31;;;;;;;2.00;1.00;;;;;;;18.51;63.63;97521.09;15290521;19;20052;-78
2023/04/22 19:19:55;;;;;;;1.55;0.90;;;;;;;18.38;64.16;97522.97;15284166;19;20017;-77
2023/04/22 19:25:23;;;;;;;4.20;1.13;;;;;;;18.35;62.08;97526.16;15291735;19;20074;-77
2023/04/22 19:30:47;;;;;;;3.70;1.60;;;;;;;18.17;63.97;97535.22;15290910;19;20022;-77
2023/04/22 19:36:13;;;;;;;1.83;1.17;;;;;;;17.97;66.94;97533.63;15292428;19;20090;-77
2023/04/22 19:41:40;;;;;;;1.85;1.25;;;;;;;18.00;65.40;97529.59;15285163;19;20013;-79
2023/04/22 19:47:05;;;;;;;2.95;1.20;;;;;;;17.99;64.43;97533.41;15291831;19;20615;-77
2023/04/22 19:52:30;;;;;;;1.90;1.13;;;;;;;18.00;65.50;97532.34;15284412;19;20052;-77
2023/04/22 19:57:59;;;;;;;3.65;1.25;;;;;;;17.98;66.59;97529.00;15284907;19;20025;-77
2023/04/22 20:03:24;;;;;;;3.53;1.30;;;;;;;17.97;68.90;97527.34;15284536;19;20025;-76
2023/04/22 20:08:50;;;;;;;5.30;1.30;;;;;;;17.96;69.70;97528.38;15285293;19;20035;-76
2023/04/22 20:14:19;;;;;;;1.58;1.10;;;;;;;17.94;72.10;97525.88;15275488;19;20014;-75
2023/04/22 20:19:44;;;;;;;1.77;1.10;;;;;;;17.82;76.56;97527.72;15278765;19;20014;-76
2023/04/22 20:25:11;;;;;;;3.60;1.20;;;;;;;17.76;76.32;97525.94;15279958;19;20014;-76
2023/04/22 20:30:39;;;;;;;1.58;1.10;;;;;;;17.73;78.60;97518.22;15285662;19;20238;-76
2023/04/22 20:36:05;;;;;;;5.38;1.33;;;;;;;17.69;78.46;97510.50;15297921;19;20014;-77
2023/04/22 20:41:56;;;;;;;3.08;1.60;;;;;;;17.65;78.51;97514.72;15303872;19;20010;-75
2023/04/22 20:53:05;;;;;;;2.20;1.40;;;;;;;17.58;78.41;97529.50;15283542;19;21027;-76
2023/04/22 20:58:32;;;;;;;1.70;1.35;;;;;;;17.53;78.81;97544.63;15289533;19;20094;-77
2023/04/22 21:04:00;;;;;;;1.90;1.40;;;;;;;17.44;82.94;97534.28;15297915;19;20021;-76
2023/04/22 21:09:29;;;;;;;1.88;1.30;;;;;;;17.23;90.67;97539.13;15295918;19;20018;-76
2023/04/22 21:14:56;;;;;;;1.40;1.30;;;;;;;17.20;94.13;97526.81;15291081;19;20358;-76
2023/04/22 21:20:27;;;;;;;1.65;1.20;;;;;;;17.17;92.47;97521.81;15286641;19;20010;-77
2023/04/22 21:26:00;;;;;;;2.13;1.20;;;;;;;17.19;89.72;97529.72;15304577;19;20022;-77
2023/04/22 21:31:26;;;;;;;1.20;0.95;;;;;;;17.20;89.27;97542.28;15304077;19;20011;-76
2023/04/22 21:36:53;;;;;;;2.83;1.10;;;;;;;17.15;91.28;97540.25;15301716;19;20019;-77
2023/04/22 21:42:18;;;;;;;2.63;1.13;;;;;;;17.03;92.98;97542.88;15293967;19;20789;-75
2023/04/22 21:47:42;;;;;;;2.38;1.20;;;;;;;17.06;93.64;97541.59;15303099;19;20461;-76
2023/04/22 21:53:18;;;;;;;1.83;1.20;;;;;;;17.05;93.69;97546.19;15284439;19;20011;-76
2023/04/22 21:58:44;;;;;;;3.15;1.42;;;;;;;17.03;94.63;97542.03;15291600;19;20026;-76
2023/04/22 22:04:08;;;;;;;2.15;1.20;;;;;;;16.98;96.51;97553.59;15293547;19;20058;-75
2023/04/22 22:09:36;;;;;;;2.42;1.33;;;;;;;16.86;99.97;97550.75;15294102;19;20021;-76
2023/04/22 22:15:01;;;;;;;1.73;1.00;;;;;;;16.76;100.00;97547.69;15294038;19;20484;-76
2023/04/22 22:20:28;;;;;;;2.83;1.17;;;;;;;16.70;100.00;97543.97;15293418;19;20013;-76
2023/04/22 22:25:55;;;;;;;1.33;1.08;;;;;;;16.66;100.00;97544.66;15295216;19;20021;-76
2023/04/22 22:31:21;;;;;;;1.58;1.10;;;;;;;16.63;100.00;97552.22;15297525;19;20014;-76
2023/04/22 22:36:55;;;;;;;2.92;1.20;;;;;;;16.62;100.00;97556.00;15366347;19;20022;-75
2023/04/22 22:42:22;;;;;;;1.63;1.23;;;;;;;16.59;100.00;97563.72;15306850;19;20015;-76
2023/04/22 22:47:41;;;;;;;2.60;1.30;;;;;;;16.54;100.00;97549.97;15289820;19;20133;-75
2023/04/22 22:53:12;;;;;;;5.93;1.63;;;;;;;16.49;100.00;97556.91;15279769;19;20018;-76
2023/04/22 22:58:39;;;;;;;2.70;1.25;;;;;;;16.44;100.00;97561.34;15290691;19;20014;-76
2023/04/22 23:04:04;;;;;;;2.95;1.40;;;;;;;16.38;100.00;97554.91;15291618;19;20023;-77
2023/04/22 23:09:29;;;;;;;1.10;1.00;;;;;;;16.36;100.00;97561.63;15294239;19;20025;-77
2023/04/22 23:14:56;;;;;;;1.55;1.00;;;;;;;16.29;100.00;97554.31;15292952;19;20010;-77
2023/04/22 23:20:22;;;;;;;2.47;1.27;;;;;;;16.23;100.00;97555.22;15288170;19;20358;-77
2023/04/22 23:25:47;;;;;;;4.22;1.20;;;;;;;16.17;100.00;97553.38;15288143;19;20010;-76
2023/04/22 23:31:19;;;;;;;1.48;1.13;;;;;;;16.05;100.00;97541.56;15290741;19;20086;-76
2023/04/22 23:36:44;;;;;;;1.85;1.13;;;;;;;15.92;100.00;97543.28;15292914;19;20025;-77
2023/04/22 23:42:09;;;;;;;2.83;1.10;;;;;;;15.83;100.00;97541.81;15289868;19;20017;-76
2023/04/22 23:47:30;;;;;;;3.35;0.90;;;;;;;15.82;100.00;97532.84;15296536;19;20015;-78
2023/04/22 23:52:54;;;;;;;3.88;0.90;;;;;;;15.83;100.00;97537.25;15288152;19;20397;-75
2023/04/22 23:58:19;;;;;;;2.67;1.05;;;;;;;15.80;100.00;97540.38;15288586;19;20033;-76
